sensor_id;sensor_type;location;lat;lon;timestamp;pressure;altitude;pressure_sealevel;temperature;humidity
23619;BME280;18207;32.078;34.818;2023-02-15T00:00:22;101161.50;;;20.56;36.09
23619;BME280;18207;32.078;34.818;2023-02-15T00:02:52;101165.13;;;20.57;35.85
23619;BME280;18207;32.078;34.818;2023-02-15T00:05:24;101171.88;;;20.56;35.85
23619;BME280;18207;32.078;34.818;2023-02-15T00:07:54;101177.44;;;20.56;36.09
23619;BME280;18207;32.078;34.818;2023-02-15T00:10:24;101173.84;;;20.55;35.72
23619;BME280;18207;32.078;34.818;2023-02-15T00:12:55;101172.22;;;20.54;36.03
23619;BME280;18207;32.078;34.818;2023-02-15T00:15:25;101171.06;;;20.55;36.22
23619;BME280;18207;32.078;34.818;2023-02-15T00:17:56;101173.00;;;20.55;35.64
23619;BME280;18207;32.078;34.818;2023-02-15T00:20:28;101175.00;;;20.54;35.93
23619;BME280;18207;32.078;34.818;2023-02-15T00:22:59;101174.16;;;20.54;36.23
23619;BME280;18207;32.078;34.818;2023-02-15T00:25:29;101173.34;;;20.53;35.84
23619;BME280;18207;32.078;34.818;2023-02-15T00:28:00;101167.75;;;20.53;36.43
23619;BME280;18207;32.078;34.818;2023-02-15T00:30:31;101174.50;;;20.52;35.98
23619;BME280;18207;32.078;34.818;2023-02-15T00:33:01;101176.44;;;20.52;36.54
23619;BME280;18207;32.078;34.818;2023-02-15T00:35:33;101179.25;;;20.52;36.59
23619;BME280;18207;32.078;34.818;2023-02-15T00:38:04;101180.41;;;20.51;36.56
23619;BME280;18207;32.078;34.818;2023-02-15T00:40:34;101186.81;;;20.51;36.31
23619;BME280;18207;32.078;34.818;2023-02-15T00:43:05;101191.59;;;20.51;36.59
23619;BME280;18207;32.078;34.818;2023-02-15T00:45:37;101189.09;;;20.49;36.41
23619;BME280;18207;32.078;34.818;2023-02-15T00:48:07;101193.88;;;20.49;36.19
23619;BME280;18207;32.078;34.818;2023-02-15T00:50:39;101184.66;;;20.48;36.20
23619;BME280;18207;32.078;34.818;2023-02-15T00:53:09;101187.28;;;20.45;36.38
23619;BME280;18207;32.078;34.818;2023-02-15T00:55:39;101187.91;;;20.42;36.62
23619;BME280;18207;32.078;34.818;2023-02-15T00:58:10;101188.59;;;20.39;36.26
23619;BME280;18207;32.078;34.818;2023-02-15T01:00:43;101187.28;;;20.36;36.13
23619;BME280;18207;32.078;34.818;2023-02-15T01:03:16;101187.41;;;20.31;36.04
23619;BME280;18207;32.078;34.818;2023-02-15T01:05:49;101190.03;;;20.28;36.52
23619;BME280;18207;32.078;34.818;2023-02-15T01:08:22;101183.13;;;20.25;36.34
23619;BME280;18207;32.078;34.818;2023-02-15T01:10:52;101188.19;;;20.23;36.74
23619;BME280;18207;32.078;34.818;2023-02-15T01:13:22;101185.72;;;20.22;36.93
23619;BME280;18207;32.078;34.818;2023-02-15T01:15:55;101187.69;;;20.21;36.80
23619;BME280;18207;32.078;34.818;2023-02-15T01:18:25;101185.22;;;20.20;36.56
23619;BME280;18207;32.078;34.818;2023-02-15T01:20:57;101189.97;;;20.19;36.44
23619;BME280;18207;32.078;34.818;2023-02-15T01:23:27;101185.22;;;20.20;36.94
23619;BME280;18207;32.078;34.818;2023-02-15T01:26:02;101190.47;;;20.21;37.03
23619;BME280;18207;32.078;34.818;2023-02-15T01:28:32;101185.22;;;20.20;36.63
23619;BME280;18207;32.078;34.818;2023-02-15T01:31:07;101186.88;;;20.21;37.10
23619;BME280;18207;32.078;34.818;2023-02-15T01:33:38;101186.03;;;20.20;36.53
23619;BME280;18207;32.078;34.818;2023-02-15T01:36:13;101193.91;;;20.18;36.59
23619;BME280;18207;32.078;34.818;2023-02-15T01:38:45;101188.66;;;20.17;36.55
23619;BME280;18207;32.078;34.818;2023-02-15T01:41:16;101190.63;;;20.16;36.82
23619;BME280;18207;32.078;34.818;2023-02-15T01:43:56;101200.16;;;20.15;36.76
23619;BME280;18207;32.078;34.818;2023-02-15T01:46:34;101199.31;;;20.15;36.68
23619;BME280;18207;32.078;34.818;2023-02-15T01:49:12;101203.56;;;20.12;36.57
23619;BME280;18207;32.078;34.818;2023-02-15T01:51:48;101204.72;;;20.11;37.00
23619;BME280;18207;32.078;34.818;2023-02-15T01:54:27;101200.63;;;20.09;36.71
23619;BME280;18207;32.078;34.818;2023-02-15T01:57:03;101198.97;;;20.08;36.54
23619;BME280;18207;32.078;34.818;2023-02-15T01:59:38;101196.50;;;20.06;36.56
23619;BME280;18207;32.078;34.818;2023-02-15T02:02:12;101204.03;;;20.06;37.10
23619;BME280;18207;32.078;34.818;2023-02-15T02:04:48;101203.53;;;20.04;37.10
23619;BME280;18207;32.078;34.818;2023-02-15T02:07:24;101201.88;;;20.03;37.03
23619;BME280;18207;32.078;34.818;2023-02-15T02:09:56;101203.06;;;20.02;36.67
23619;BME280;18207;32.078;34.818;2023-02-15T02:12:26;101196.97;;;20.00;36.59
23619;BME280;18207;32.078;34.818;2023-02-15T02:14:57;101200.91;;;19.99;36.95
23619;BME280;18207;32.078;34.818;2023-02-15T02:17:42;101197.25;;;19.98;36.72
23619;BME280;18207;32.078;34.818;2023-02-15T02:24:15;101202.97;;;19.93;37.22
23619;BME280;18207;32.078;34.818;2023-02-15T02:27:19;101196.88;;;19.91;37.20
23619;BME280;18207;32.078;34.818;2023-02-15T02:33:42;101194.72;;;19.88;36.69
23619;BME280;18207;32.078;34.818;2023-02-15T02:36:25;101191.94;;;19.88;36.94
23619;BME280;18207;32.078;34.818;2023-02-15T02:39:14;101194.72;;;19.88;37.13
23619;BME280;18207;32.078;34.818;2023-02-15T02:41:58;101190.28;;;19.87;36.90
23619;BME280;18207;32.078;34.818;2023-02-15T02:44:40;101190.28;;;19.87;36.65
23619;BME280;18207;32.078;34.818;2023-02-15T02:47:20;101197.03;;;19.86;36.69
23619;BME280;18207;32.078;34.818;2023-02-15T02:50:00;101194.25;;;19.86;36.85
23619;BME280;18207;32.078;34.818;2023-02-15T02:52:40;101193.72;;;19.84;36.68
23619;BME280;18207;32.078;34.818;2023-02-15T02:55:17;101197.66;;;19.83;36.77
23619;BME280;18207;32.078;34.818;2023-02-15T02:57:57;101199.94;;;19.81;37.27
23619;BME280;18207;32.078;34.818;2023-02-15T03:00:32;101209.44;;;19.80;37.39
23619;BME280;18207;32.078;34.818;2023-02-15T03:03:10;101205.84;;;19.80;36.77
23619;BME280;18207;32.078;34.818;2023-02-15T03:05:47;101207.78;;;19.79;36.81
23619;BME280;18207;32.078;34.818;2023-02-15T03:08:26;101215.66;;;19.77;37.08
23619;BME280;18207;32.078;34.818;2023-02-15T03:11:02;101218.78;;;19.76;37.25
23619;BME280;18207;32.078;34.818;2023-02-15T03:13:34;101224.34;;;19.76;36.78
23619;BME280;18207;32.078;34.818;2023-02-15T03:16:06;101222.69;;;19.75;36.93
23619;BME280;18207;32.078;34.818;2023-02-15T03:19:02;101228.94;;;19.72;36.89
23619;BME280;18207;32.078;34.818;2023-02-15T03:21:43;101229.22;;;19.71;37.12
23619;BME280;18207;32.078;34.818;2023-02-15T03:24:22;101241.03;;;19.68;37.02
23619;BME280;18207;32.078;34.818;2023-02-15T03:26:56;101237.75;;;19.66;36.92
23619;BME280;18207;32.078;34.818;2023-02-15T03:29:28;101238.38;;;19.63;37.21
23619;BME280;18207;32.078;34.818;2023-02-15T03:32:04;101248.72;;;19.62;37.38
23619;BME280;18207;32.078;34.818;2023-02-15T03:34:37;101253.78;;;19.60;37.37
23619;BME280;18207;32.078;34.818;2023-02-15T03:37:17;101258.22;;;19.61;37.27
23619;BME280;18207;32.078;34.818;2023-02-15T03:39:56;101256.84;;;19.59;36.86
23619;BME280;18207;32.078;34.818;2023-02-15T03:42:53;101263.59;;;19.58;36.92
23619;BME280;18207;32.078;34.818;2023-02-15T03:45:31;101263.91;;;19.56;36.89
23619;BME280;18207;32.078;34.818;2023-02-15T03:48:06;101262.25;;;19.55;36.98
23619;BME280;18207;32.078;34.818;2023-02-15T03:50:38;101263.09;;;19.56;36.98
23619;BME280;18207;32.078;34.818;2023-02-15T03:53:27;101271.75;;;19.54;37.55
23619;BME280;18207;32.078;34.818;2023-02-15T03:55:58;101266.16;;;19.54;37.50
23619;BME280;18207;32.078;34.818;2023-02-15T03:58:28;101274.22;;;19.56;37.37
23619;BME280;18207;32.078;34.818;2023-02-15T04:01:25;101272.88;;;19.53;36.91
23619;BME280;18207;32.078;34.818;2023-02-15T04:04:34;101271.56;;;19.51;37.57
23619;BME280;18207;32.078;34.818;2023-02-15T04:07:07;101278.25;;;19.50;37.43
23619;BME280;18207;32.078;34.818;2023-02-15T04:09:39;101271.88;;;19.49;37.26
23619;BME280;18207;32.078;34.818;2023-02-15T04:12:26;101279.41;;;19.49;37.25
23619;BME280;18207;32.078;34.818;2023-02-15T04:14:56;101278.59;;;19.48;37.56
23619;BME280;18207;32.078;34.818;2023-02-15T04:17:43;101291.38;;;19.49;37.47
23619;BME280;18207;32.078;34.818;2023-02-15T04:20:13;101293.03;;;19.50;37.50
23619;BME280;18207;32.078;34.818;2023-02-15T04:23:00;101298.63;;;19.50;37.51
23619;BME280;18207;32.078;34.818;2023-02-15T04:25:49;101295.00;;;19.50;37.23
23619;BME280;18207;32.078;34.818;2023-02-15T04:28:20;101298.91;;;19.49;37.66
23619;BME280;18207;32.078;34.818;2023-02-15T04:30:50;101296.13;;;19.49;37.67
23619;BME280;18207;32.078;34.818;2023-02-15T04:33:21;101304.50;;;19.49;37.64
23619;BME280;18207;32.078;34.818;2023-02-15T04:35:51;101301.22;;;19.47;37.56
23619;BME280;18207;32.078;34.818;2023-02-15T04:38:21;101307.09;;;19.45;37.60
23619;BME280;18207;32.078;34.818;2023-02-15T04:40:55;101318.22;;;19.45;37.40
23619;BME280;18207;32.078;34.818;2023-02-15T04:43:28;101317.72;;;19.43;37.70
23619;BME280;18207;32.078;34.818;2023-02-15T04:45:57;101320.50;;;19.43;37.18
23619;BME280;18207;32.078;34.818;2023-02-15T04:48:28;101326.91;;;19.44;37.69
23619;BME280;18207;32.078;34.818;2023-02-15T04:50:58;101326.06;;;19.43;37.83
23619;BME280;18207;32.078;34.818;2023-02-15T04:53:28;101328.88;;;19.43;37.80
23619;BME280;18207;32.078;34.818;2023-02-15T04:56:00;101336.41;;;19.43;37.67
23619;BME280;18207;32.078;34.818;2023-02-15T04:58:31;101336.75;;;19.41;37.69
23619;BME280;18207;32.078;34.818;2023-02-15T05:01:01;101345.91;;;19.42;37.54
23619;BME280;18207;32.078;34.818;2023-02-15T05:03:31;101346.25;;;19.40;37.75
23619;BME280;18207;32.078;34.818;2023-02-15T05:06:01;101353.28;;;19.38;37.50
23619;BME280;18207;32.078;34.818;2023-02-15T05:08:32;101358.31;;;19.36;37.67
23619;BME280;18207;32.078;34.818;2023-02-15T05:11:04;101353.88;;;19.35;37.47
23619;BME280;18207;32.078;34.818;2023-02-15T05:13:34;101349.78;;;19.32;37.25
23619;BME280;18207;32.078;34.818;2023-02-15T05:16:04;101356.47;;;19.31;37.82
23619;BME280;18207;32.078;34.818;2023-02-15T05:18:35;101360.41;;;19.30;37.87
23619;BME280;18207;32.078;34.818;2023-02-15T05:21:05;101363.47;;;19.29;37.39
23619;BME280;18207;32.078;34.818;2023-02-15T05:23:35;101368.75;;;19.30;37.77
23619;BME280;18207;32.078;34.818;2023-02-15T05:26:10;101370.41;;;19.31;37.47
23619;BME280;18207;32.078;34.818;2023-02-15T05:28:57;101368.94;;;19.34;37.74
23619;BME280;18207;32.078;34.818;2023-02-15T05:31:27;101365.22;;;19.38;37.90
23619;BME280;18207;32.078;34.818;2023-02-15T05:33:58;101365.31;;;19.47;38.54
23619;BME280;18207;32.078;34.818;2023-02-15T05:36:28;101375.91;;;19.58;38.23
23619;BME280;18207;32.078;34.818;2023-02-15T05:38:58;101378.16;;;19.70;38.92
23619;BME280;18207;32.078;34.818;2023-02-15T05:41:31;101380.59;;;19.84;38.87
23619;BME280;18207;32.078;34.818;2023-02-15T05:44:01;101376.13;;;19.97;38.50
23619;BME280;18207;32.078;34.818;2023-02-15T05:46:31;101390.53;;;20.12;39.35
23619;BME280;18207;32.078;34.818;2023-02-15T05:49:02;101386.53;;;20.27;38.71
23619;BME280;18207;32.078;34.818;2023-02-15T05:51:32;101380.06;;;20.40;38.79
23619;BME280;18207;32.078;34.818;2023-02-15T05:54:03;101384.22;;;20.51;39.18
23619;BME280;18207;32.078;34.818;2023-02-15T05:56:34;101394.91;;;20.57;38.50
23619;BME280;18207;32.078;34.818;2023-02-15T05:59:05;101386.75;;;20.61;38.33
23619;BME280;18207;32.078;34.818;2023-02-15T06:01:35;101393.66;;;20.63;38.55
23619;BME280;18207;32.078;34.818;2023-02-15T06:04:06;101403.97;;;20.63;38.15
23619;BME280;18207;32.078;34.818;2023-02-15T06:06:36;101408.25;;;20.60;37.89
23619;BME280;18207;32.078;34.818;2023-02-15T06:09:06;101406.94;;;20.58;38.29
23619;BME280;18207;32.078;34.818;2023-02-15T06:11:39;101416.25;;;20.53;38.12
23619;BME280;18207;32.078;34.818;2023-02-15T06:14:09;101424.75;;;20.48;37.82
23619;BME280;18207;32.078;34.818;2023-02-15T06:16:39;101420.97;;;20.44;37.92
23619;BME280;18207;32.078;34.818;2023-02-15T06:19:10;101421.94;;;20.40;38.30
23619;BME280;18207;32.078;34.818;2023-02-15T06:21:40;101427.00;;;20.38;37.78
23619;BME280;18207;32.078;34.818;2023-02-15T06:24:10;101431.25;;;20.35;37.92
23619;BME280;18207;32.078;34.818;2023-02-15T06:26:42;101428.75;;;20.34;38.42
23619;BME280;18207;32.078;34.818;2023-02-15T06:29:13;101441.59;;;20.35;37.97
23619;BME280;18207;32.078;34.818;2023-02-15T06:31:43;101437.66;;;20.36;38.20
23619;BME280;18207;32.078;34.818;2023-02-15T06:34:14;101439.31;;;20.37;38.48
23619;BME280;18207;32.078;34.818;2023-02-15T06:36:44;101441.28;;;20.36;38.17
23619;BME280;18207;32.078;34.818;2023-02-15T06:39:15;101444.88;;;20.37;38.15
23619;BME280;18207;32.078;34.818;2023-02-15T06:41:47;101447.34;;;20.38;38.05
23619;BME280;18207;32.078;34.818;2023-02-15T06:44:17;101438.97;;;20.38;38.57
23619;BME280;18207;32.078;34.818;2023-02-15T06:46:48;101442.59;;;20.39;38.40
23619;BME280;18207;32.078;34.818;2023-02-15T06:49:18;101438.16;;;20.38;38.58
23619;BME280;18207;32.078;34.818;2023-02-15T06:51:48;101431.75;;;20.37;37.96
23619;BME280;18207;32.078;34.818;2023-02-15T06:54:18;101433.72;;;20.37;38.51
23619;BME280;18207;32.078;34.818;2023-02-15T06:56:50;101426.16;;;20.37;38.14
23619;BME280;18207;32.078;34.818;2023-02-15T06:59:21;101430.78;;;20.42;38.51
23619;BME280;18207;32.078;34.818;2023-02-15T07:01:50;101435.63;;;20.50;38.53
23619;BME280;18207;32.078;34.818;2023-02-15T07:04:21;101430.59;;;20.60;39.09
23619;BME280;18207;32.078;34.818;2023-02-15T07:06:51;101429.69;;;20.73;39.45
23619;BME280;18207;32.078;34.818;2023-02-15T07:09:21;101424.84;;;20.87;39.62
23619;BME280;18207;32.078;34.818;2023-02-15T07:11:53;101426.41;;;21.01;39.17
23619;BME280;18207;32.078;34.818;2023-02-15T07:14:40;101428.28;;;21.14;39.46
23619;BME280;18207;32.078;34.818;2023-02-15T07:17:10;101424.53;;;21.27;39.57
23619;BME280;18207;32.078;34.818;2023-02-15T07:20:01;101434.75;;;21.40;39.13
23619;BME280;18207;32.078;34.818;2023-02-15T07:22:31;101431.03;;;21.53;39.64
23619;BME280;18207;32.078;34.818;2023-02-15T07:25:04;101433.22;;;21.64;39.48
23619;BME280;18207;32.078;34.818;2023-02-15T07:27:36;101433.09;;;21.78;39.53
23619;BME280;18207;32.078;34.818;2023-02-15T07:30:09;101433.75;;;21.92;39.59
23619;BME280;18207;32.078;34.818;2023-02-15T07:32:40;101437.22;;;22.06;39.35
23619;BME280;18207;32.078;34.818;2023-02-15T07:35:24;101435.91;;;22.20;39.76
23619;BME280;18207;32.078;34.818;2023-02-15T07:37:54;101436.25;;;22.36;39.59
23619;BME280;18207;32.078;34.818;2023-02-15T07:40:25;101433.28;;;22.49;39.55
23619;BME280;18207;32.078;34.818;2023-02-15T07:42:58;101432.59;;;22.60;39.23
23619;BME280;18207;32.078;34.818;2023-02-15T07:45:29;101429.09;;;22.72;39.25
23619;BME280;18207;32.078;34.818;2023-02-15T07:48:01;101432.38;;;22.82;39.36
23619;BME280;18207;32.078;34.818;2023-02-15T07:50:32;101429.69;;;22.94;38.96
23619;BME280;18207;32.078;34.818;2023-02-15T07:53:03;101438.59;;;23.05;38.82
23619;BME280;18207;32.078;34.818;2023-02-15T07:55:34;101439.06;;;23.15;38.58
23619;BME280;18207;32.078;34.818;2023-02-15T07:58:06;101431.06;;;23.26;38.85
23619;BME280;18207;32.078;34.818;2023-02-15T08:00:36;101444.38;;;23.37;38.71
23619;BME280;18207;32.078;34.818;2023-02-15T08:03:24;101434.41;;;23.48;38.86
23619;BME280;18207;32.078;34.818;2023-02-15T08:05:57;101436.97;;;23.61;38.67
23619;BME280;18207;32.078;34.818;2023-02-15T08:08:28;101441.72;;;23.69;38.66
23619;BME280;18207;32.078;34.818;2023-02-15T08:11:05;101437.59;;;23.75;38.21
23619;BME280;18207;32.078;34.818;2023-02-15T08:13:56;101442.03;;;23.76;37.97
23619;BME280;18207;32.078;34.818;2023-02-15T08:16:31;101431.63;;;23.77;37.67
23619;BME280;18207;32.078;34.818;2023-02-15T08:19:04;101427.66;;;23.78;37.68
23619;BME280;18207;32.078;34.818;2023-02-15T08:21:36;101425.69;;;23.78;37.57
23619;BME280;18207;32.078;34.818;2023-02-15T08:24:08;101433.28;;;23.78;37.52
23619;BME280;18207;32.078;34.818;2023-02-15T08:26:40;101423.03;;;23.73;37.33
23619;BME280;18207;32.078;34.818;2023-02-15T08:29:16;101426.06;;;23.68;36.78
23619;BME280;18207;32.078;34.818;2023-02-15T08:31:47;101425.09;;;23.64;37.05
23619;BME280;18207;32.078;34.818;2023-02-15T08:34:20;101430.56;;;23.61;37.11
23619;BME280;18207;32.078;34.818;2023-02-15T08:36:50;101421.16;;;23.57;36.53
23619;BME280;18207;32.078;34.818;2023-02-15T08:39:21;101419.50;;;23.56;36.79
23619;BME280;18207;32.078;34.818;2023-02-15T08:41:51;101425.13;;;23.56;36.49
23619;BME280;18207;32.078;34.818;2023-02-15T08:44:23;101420.22;;;23.53;36.91
23619;BME280;18207;32.078;34.818;2023-02-15T08:46:53;101408.84;;;23.49;36.54
23619;BME280;18207;32.078;34.818;2023-02-15T08:49:26;101418.44;;;23.48;36.26
23619;BME280;18207;32.078;34.818;2023-02-15T08:51:56;101419.91;;;23.46;36.54
23619;BME280;18207;32.078;34.818;2023-02-15T08:54:26;101413.00;;;23.43;36.40
23619;BME280;18207;32.078;34.818;2023-02-15T08:56:56;101410.53;;;23.42;36.58
23619;BME280;18207;32.078;34.818;2023-02-15T08:59:29;101410.84;;;23.40;35.96
23619;BME280;18207;32.078;34.818;2023-02-15T09:01:59;101408.75;;;23.37;36.41
23619;BME280;18207;32.078;34.818;2023-02-15T09:04:31;101415.16;;;23.38;36.29
23619;BME280;18207;32.078;34.818;2023-02-15T09:07:01;101407.25;;;23.40;36.60
23619;BME280;18207;32.078;34.818;2023-02-15T09:09:32;101405.72;;;23.42;36.49
23619;BME280;18207;32.078;34.818;2023-02-15T09:12:03;101411.50;;;23.46;36.49
23619;BME280;18207;32.078;34.818;2023-02-15T09:14:35;101402.75;;;23.47;36.20
23619;BME280;18207;32.078;34.818;2023-02-15T09:17:05;101401.91;;;23.47;36.42
23619;BME280;18207;32.078;34.818;2023-02-15T09:19:36;101398.78;;;23.48;36.36
23619;BME280;18207;32.078;34.818;2023-02-15T09:22:06;101398.78;;;23.48;36.58
23619;BME280;18207;32.078;34.818;2023-02-15T09:24:36;101393.97;;;23.49;36.37
23619;BME280;18207;32.078;34.818;2023-02-15T09:27:07;101393.63;;;23.50;36.24
23619;BME280;18207;32.078;34.818;2023-02-15T09:29:39;101391.66;;;23.51;36.41
23619;BME280;18207;32.078;34.818;2023-02-15T09:32:13;101390.81;;;23.50;35.80
23619;BME280;18207;32.078;34.818;2023-02-15T09:34:45;101388.03;;;23.50;36.35
23619;BME280;18207;32.078;34.818;2023-02-15T09:37:16;101390.50;;;23.52;36.08
23619;BME280;18207;32.078;34.818;2023-02-15T09:39:46;101386.53;;;23.53;36.17
23619;BME280;18207;32.078;34.818;2023-02-15T09:45:41;101360.94;;;23.54;35.96
23619;BME280;18207;32.078;34.818;2023-02-15T09:48:38;101372.31;;;23.58;36.32
23619;BME280;18207;32.078;34.818;2023-02-15T09:54:41;101363.22;;;23.61;35.92
23619;BME280;18207;32.078;34.818;2023-02-15T09:57:26;101371.28;;;23.62;36.11
23619;BME280;18207;32.078;34.818;2023-02-15T10:00:15;101363.34;;;23.64;35.62
23619;BME280;18207;32.078;34.818;2023-02-15T10:03:13;101367.44;;;23.67;35.72
23619;BME280;18207;32.078;34.818;2023-02-15T10:06:08;101363.13;;;23.69;35.60
23619;BME280;18207;32.078;34.818;2023-02-15T10:09:21;101375.19;;;23.70;35.58
23619;BME280;18207;32.078;34.818;2023-02-15T10:12:19;101364.44;;;23.72;35.66
23619;BME280;18207;32.078;34.818;2023-02-15T10:15:34;101358.00;;;23.71;35.99
23619;BME280;18207;32.078;34.818;2023-02-15T10:18:53;101356.03;;;23.72;35.97
23619;BME280;18207;32.078;34.818;2023-02-15T10:21:39;101352.38;;;23.71;35.63
23619;BME280;18207;32.078;34.818;2023-02-15T10:24:35;101362.44;;;23.72;35.59
23619;BME280;18207;32.078;34.818;2023-02-15T10:27:20;101364.44;;;23.72;35.49
23619;BME280;18207;32.078;34.818;2023-02-15T10:30:03;101359.66;;;23.72;35.37
23619;BME280;18207;32.078;34.818;2023-02-15T10:32:52;101356.34;;;23.70;35.71
23619;BME280;18207;32.078;34.818;2023-02-15T10:35:37;101352.72;;;23.70;35.48
23619;BME280;18207;32.078;34.818;2023-02-15T10:38:27;101351.09;;;23.69;35.39
23619;BME280;18207;32.078;34.818;2023-02-15T10:41:17;101348.63;;;23.67;35.07
23619;BME280;18207;32.078;34.818;2023-02-15T10:44:19;101352.94;;;23.65;35.27
23619;BME280;18207;32.078;34.818;2023-02-15T10:47:18;101350.47;;;23.63;35.56
23619;BME280;18207;32.078;34.818;2023-02-15T10:50:20;101351.50;;;23.59;35.25
23619;BME280;18207;32.078;34.818;2023-02-15T10:53:12;101359.44;;;23.57;35.55
23619;BME280;18207;32.078;34.818;2023-02-15T10:55:55;101353.31;;;23.55;34.99
23619;BME280;18207;32.078;34.818;2023-02-15T10:58:49;101349.59;;;23.51;35.19
23619;BME280;18207;32.078;34.818;2023-02-15T11:01:28;101346.63;;;23.47;35.59
23619;BME280;18207;32.078;34.818;2023-02-15T11:04:35;101349.31;;;23.44;35.36
23619;BME280;18207;32.078;34.818;2023-02-15T11:07:17;101351.94;;;23.40;35.28
23619;BME280;18207;32.078;34.818;2023-02-15T11:10:00;101346.19;;;23.37;35.35
23619;BME280;18207;32.078;34.818;2023-02-15T11:12:36;101352.03;;;23.32;35.38
23619;BME280;18207;32.078;34.818;2023-02-15T11:15:18;101355.50;;;23.29;35.39
23619;BME280;18207;32.078;34.818;2023-02-15T11:17:56;101362.94;;;23.25;35.53
23619;BME280;18207;32.078;34.818;2023-02-15T11:20:33;101358.34;;;23.21;35.23
23619;BME280;18207;32.078;34.818;2023-02-15T11:23:14;101354.09;;;23.15;35.42
23619;BME280;18207;32.078;34.818;2023-02-15T11:25:58;101370.28;;;23.09;35.52
23619;BME280;18207;32.078;34.818;2023-02-15T11:28:36;101374.09;;;23.05;35.41
23619;BME280;18207;32.078;34.818;2023-02-15T11:31:17;101361.06;;;23.00;35.54
23619;BME280;18207;32.078;34.818;2023-02-15T11:33:57;101369.50;;;22.92;35.36
23619;BME280;18207;32.078;34.818;2023-02-15T11:36:33;101365.59;;;22.84;35.37
23619;BME280;18207;32.078;34.818;2023-02-15T11:39:12;101358.88;;;22.77;35.72
23619;BME280;18207;32.078;34.818;2023-02-15T11:41:51;101361.38;;;22.70;35.20
23619;BME280;18207;32.078;34.818;2023-02-15T11:44:29;101359.88;;;22.64;35.75
23619;BME280;18207;32.078;34.818;2023-02-15T11:47:02;101368.50;;;22.59;35.27
23619;BME280;18207;32.078;34.818;2023-02-15T11:49:34;101367.50;;;22.55;35.43
23619;BME280;18207;32.078;34.818;2023-02-15T11:52:10;101365.69;;;22.50;35.90
23619;BME280;18207;32.078;34.818;2023-02-15T11:54:44;101365.91;;;22.45;35.51
23619;BME280;18207;32.078;34.818;2023-02-15T11:57:23;101377.75;;;22.42;35.96
23619;BME280;18207;32.078;34.818;2023-02-15T12:00:02;101371.66;;;22.41;35.80
23619;BME280;18207;32.078;34.818;2023-02-15T12:02:38;101367.22;;;22.40;36.30
23619;BME280;18207;32.078;34.818;2023-02-15T12:05:17;101360.47;;;22.41;36.24
23619;BME280;18207;32.078;34.818;2023-02-15T12:07:55;101370.50;;;22.42;36.35
23619;BME280;18207;32.078;34.818;2023-02-15T12:10:32;101365.72;;;22.42;36.28
23619;BME280;18207;32.078;34.818;2023-02-15T12:13:15;101363.25;;;22.41;36.04
23619;BME280;18207;32.078;34.818;2023-02-15T12:15:47;101373.97;;;22.39;36.34
23619;BME280;18207;32.078;34.818;2023-02-15T12:18:37;101368.72;;;22.37;36.28
23619;BME280;18207;32.078;34.818;2023-02-15T12:21:11;101369.88;;;22.36;36.44
23619;BME280;18207;32.078;34.818;2023-02-15T12:23:48;101368.56;;;22.34;36.26
23619;BME280;18207;32.078;34.818;2023-02-15T12:26:26;101369.19;;;22.31;36.46
23619;BME280;18207;32.078;34.818;2023-02-15T12:29:01;101359.47;;;22.28;36.07
23619;BME280;18207;32.078;34.818;2023-02-15T12:31:41;101368.22;;;22.27;36.26
23619;BME280;18207;32.078;34.818;2023-02-15T12:34:22;101364.56;;;22.26;36.33
23619;BME280;18207;32.078;34.818;2023-02-15T12:36:56;101368.88;;;22.24;36.32
23619;BME280;18207;32.078;34.818;2023-02-15T12:39:29;101373.63;;;22.23;36.21
23619;BME280;18207;32.078;34.818;2023-02-15T12:42:04;101378.41;;;22.23;35.93
23619;BME280;18207;32.078;34.818;2023-02-15T12:44:37;101370.81;;;22.23;35.90
23619;BME280;18207;32.078;34.818;2023-02-15T12:47:19;101379.72;;;22.25;36.46
23619;BME280;18207;32.078;34.818;2023-02-15T12:50:10;101377.75;;;22.26;36.42
23619;BME280;18207;32.078;34.818;2023-02-15T12:52:46;101379.41;;;22.27;36.29
23619;BME280;18207;32.078;34.818;2023-02-15T12:55:25;101375.44;;;22.28;36.37
23619;BME280;18207;32.078;34.818;2023-02-15T12:58:18;101384.34;;;22.30;36.48
23619;BME280;18207;32.078;34.818;2023-02-15T13:01:04;101381.25;;;22.31;36.11
23619;BME280;18207;32.078;34.818;2023-02-15T13:03:57;101384.50;;;22.33;36.12
23619;BME280;18207;32.078;34.818;2023-02-15T13:06:31;101394.56;;;22.34;35.97
23619;BME280;18207;32.078;34.818;2023-02-15T13:09:15;101388.66;;;22.36;36.14
23619;BME280;18207;32.078;34.818;2023-02-15T13:11:46;101395.06;;;22.36;36.21
23619;BME280;18207;32.078;34.818;2023-02-15T13:14:20;101401.50;;;22.37;36.30
23619;BME280;18207;32.078;34.818;2023-02-15T13:16:56;101393.09;;;22.37;36.14
23619;BME280;18207;32.078;34.818;2023-02-15T13:19:34;101407.41;;;22.35;36.51
23619;BME280;18207;32.078;34.818;2023-02-15T13:22:12;101407.09;;;22.37;36.32
23619;BME280;18207;32.078;34.818;2023-02-15T13:24:46;101411.53;;;22.38;36.42
23619;BME280;18207;32.078;34.818;2023-02-15T13:27:21;101410.72;;;22.37;35.99
23619;BME280;18207;32.078;34.818;2023-02-15T13:29:57;101402.66;;;22.36;36.45
23619;BME280;18207;32.078;34.818;2023-02-15T13:32:35;101415.50;;;22.37;36.42
23619;BME280;18207;32.078;34.818;2023-02-15T13:35:14;101415.16;;;22.38;36.25
23619;BME280;18207;32.078;34.818;2023-02-15T13:38:09;101412.72;;;22.37;36.03
23619;BME280;18207;32.078;34.818;2023-02-15T13:40:52;101425.88;;;22.36;36.45